sensor_id;sensor_type;location;lat;lon;timestamp;temperature;humidity
57829;DHT22;43657;52.698;6.314;2023-05-23T00:00:42;13.90;99.90
57829;DHT22;43657;52.698;6.314;2023-05-23T00:03:12;13.90;99.90
57829;DHT22;43657;52.698;6.314;2023-05-23T00:05:38;13.90;99.90
57829;DHT22;43657;52.698;6.314;2023-05-23T00:08:03;13.90;99.90
57829;DHT22;43657;52.698;6.314;2023-05-23T00:10:29;13.90;99.90
57829;DHT22;43657;52.698;6.314;2023-05-23T00:13:00;13.90;99.90
57829;DHT22;43657;52.698;6.314;2023-05-23T00:15:25;13.90;99.90
57829;DHT22;43657;52.698;6.314;2023-05-23T00:17:51;13.90;99.90
57829;DHT22;43657;52.698;6.314;2023-05-23T00:20:17;13.80;99.90
57829;DHT22;43657;52.698;6.314;2023-05-23T00:22:45;13.80;99.90
57829;DHT22;43657;52.698;6.314;2023-05-23T00:25:14;13.70;99.90
57829;DHT22;43657;52.698;6.314;2023-05-23T00:27:42;13.70;99.90
57829;DHT22;43657;52.698;6.314;2023-05-23T00:30:08;13.60;99.90
57829;DHT22;43657;52.698;6.314;2023-05-23T00:32:39;13.60;99.90
57829;DHT22;43657;52.698;6.314;2023-05-23T00:35:07;13.50;99.90
57829;DHT22;43657;52.698;6.314;2023-05-23T00:37:36;13.50;99.90
57829;DHT22;43657;52.698;6.314;2023-05-23T00:40:02;13.50;99.90
57829;DHT22;43657;52.698;6.314;2023-05-23T00:42:28;13.50;99.90
57829;DHT22;43657;52.698;6.314;2023-05-23T00:44:54;13.40;99.90
57829;DHT22;43657;52.698;6.314;2023-05-23T00:47:20;13.40;99.90
57829;DHT22;43657;52.698;6.314;2023-05-23T00:49:46;13.40;99.90
57829;DHT22;43657;52.698;6.314;2023-05-23T00:52:14;13.40;99.90
57829;DHT22;43657;52.698;6.314;2023-05-23T00:54:43;13.40;99.90
57829;DHT22;43657;52.698;6.314;2023-05-23T00:57:09;13.30;99.90
57829;DHT22;43657;52.698;6.314;2023-05-23T00:59:36;13.30;99.90
57829;DHT22;43657;52.698;6.314;2023-05-23T01:02:03;13.20;99.90
57829;DHT22;43657;52.698;6.314;2023-05-23T01:04:29;13.30;99.90
57829;DHT22;43657;52.698;6.314;2023-05-23T01:06:58;13.30;99.90
57829;DHT22;43657;52.698;6.314;2023-05-23T01:09:27;13.30;99.90
57829;DHT22;43657;52.698;6.314;2023-05-23T01:15:09;13.20;99.90
57829;DHT22;43657;52.698;6.314;2023-05-23T01:17:49;13.20;99.90
57829;DHT22;43657;52.698;6.314;2023-05-23T01:20:44;13.10;99.90
57829;DHT22;43657;52.698;6.314;2023-05-23T01:23:35;13.10;99.90
57829;DHT22;43657;52.698;6.314;2023-05-23T01:26:30;13.10;99.90
57829;DHT22;43657;52.698;6.314;2023-05-23T01:29:21;13.10;99.90
57829;DHT22;43657;52.698;6.314;2023-05-23T01:31:52;13.10;99.90
57829;DHT22;43657;52.698;6.314;2023-05-23T01:34:24;13.10;99.90
57829;DHT22;43657;52.698;6.314;2023-05-23T01:36:55;13.00;99.90
57829;DHT22;43657;52.698;6.314;2023-05-23T01:39:22;13.00;99.90
57829;DHT22;43657;52.698;6.314;2023-05-23T01:41:58;13.00;99.90
57829;DHT22;43657;52.698;6.314;2023-05-23T01:44:34;13.00;99.90
57829;DHT22;43657;52.698;6.314;2023-05-23T01:47:03;13.00;99.90
57829;DHT22;43657;52.698;6.314;2023-05-23T01:49:36;13.00;99.90
57829;DHT22;43657;52.698;6.314;2023-05-23T01:52:12;12.90;99.90
57829;DHT22;43657;52.698;6.314;2023-05-23T01:54:47;12.90;99.90
57829;DHT22;43657;52.698;6.314;2023-05-23T01:57:22;12.90;99.90
57829;DHT22;43657;52.698;6.314;2023-05-23T01:59:51;12.80;99.90
57829;DHT22;43657;52.698;6.314;2023-05-23T02:02:29;12.80;99.90
57829;DHT22;43657;52.698;6.314;2023-05-23T02:04:57;12.80;99.90
57829;DHT22;43657;52.698;6.314;2023-05-23T02:07:31;12.80;99.90
57829;DHT22;43657;52.698;6.314;2023-05-23T02:10:00;12.70;99.90
57829;DHT22;43657;52.698;6.314;2023-05-23T02:12:29;12.80;99.90
57829;DHT22;43657;52.698;6.314;2023-05-23T02:14:59;12.70;99.90
57829;DHT22;43657;52.698;6.314;2023-05-23T02:17:25;12.70;99.90
57829;DHT22;43657;52.698;6.314;2023-05-23T02:19:59;12.70;99.90
57829;DHT22;43657;52.698;6.314;2023-05-23T02:22:25;12.70;99.90
57829;DHT22;43657;52.698;6.314;2023-05-23T02:24:53;12.70;99.90
57829;DHT22;43657;52.698;6.314;2023-05-23T02:27:22;12.70;99.90
57829;DHT22;43657;52.698;6.314;2023-05-23T02:29:48;12.70;99.90
57829;DHT22;43657;52.698;6.314;2023-05-23T02:32:13;12.60;99.90
57829;DHT22;43657;52.698;6.314;2023-05-23T02:34:39;12.60;99.90
57829;DHT22;43657;52.698;6.314;2023-05-23T02:37:16;12.60;99.90
57829;DHT22;43657;52.698;6.314;2023-05-23T02:39:45;12.60;99.90
57829;DHT22;43657;52.698;6.314;2023-05-23T02:42:13;12.50;99.90
57829;DHT22;43657;52.698;6.314;2023-05-23T02:44:39;12.50;99.90
57829;DHT22;43657;52.698;6.314;2023-05-23T02:47:05;12.50;99.90
57829;DHT22;43657;52.698;6.314;2023-05-23T02:49:34;12.50;99.90
57829;DHT22;43657;52.698;6.314;2023-05-23T02:52:03;12.50;99.90
57829;DHT22;43657;52.698;6.314;2023-05-23T02:54:32;12.40;99.90
57829;DHT22;43657;52.698;6.314;2023-05-23T02:57:00;12.50;99.90
57829;DHT22;43657;52.698;6.314;2023-05-23T02:59:31;12.50;99.90
57829;DHT22;43657;52.698;6.314;2023-05-23T03:01:57;12.40;99.90
57829;DHT22;43657;52.698;6.314;2023-05-23T03:04:26;12.40;99.90
57829;DHT22;43657;52.698;6.314;2023-05-23T03:07:00;12.40;99.90
57829;DHT22;43657;52.698;6.314;2023-05-23T03:09:39;12.40;99.90
57829;DHT22;43657;52.698;6.314;2023-05-23T03:12:05;12.40;99.90
57829;DHT22;43657;52.698;6.314;2023-05-23T03:14:38;12.40;99.90
57829;DHT22;43657;52.698;6.314;2023-05-23T03:17:07;12.30;99.90
57829;DHT22;43657;52.698;6.314;2023-05-23T03:19:41;12.30;99.90
57829;DHT22;43657;52.698;6.314;2023-05-23T03:22:07;12.30;99.90
57829;DHT22;43657;52.698;6.314;2023-05-23T03:24:36;12.30;99.90
57829;DHT22;43657;52.698;6.314;2023-05-23T03:27:04;12.30;99.90
57829;DHT22;43657;52.698;6.314;2023-05-23T03:29:38;12.20;99.90
57829;DHT22;43657;52.698;6.314;2023-05-23T03:32:10;12.20;99.90
57829;DHT22;43657;52.698;6.314;2023-05-23T03:34:39;12.20;99.90
57829;DHT22;43657;52.698;6.314;2023-05-23T03:37:04;12.20;99.90
57829;DHT22;43657;52.698;6.314;2023-05-23T03:39:30;12.20;99.90
57829;DHT22;43657;52.698;6.314;2023-05-23T03:41:58;12.20;99.90
57829;DHT22;43657;52.698;6.314;2023-05-23T03:44:26;12.20;99.90
57829;DHT22;43657;52.698;6.314;2023-05-23T03:46:52;12.20;99.90
57829;DHT22;43657;52.698;6.314;2023-05-23T03:49:23;12.20;99.90
57829;DHT22;43657;52.698;6.314;2023-05-23T03:51:51;12.20;99.90
57829;DHT22;43657;52.698;6.314;2023-05-23T03:54:25;12.20;99.90
57829;DHT22;43657;52.698;6.314;2023-05-23T03:56:51;12.20;99.90
57829;DHT22;43657;52.698;6.314;2023-05-23T03:59:17;12.20;99.90
57829;DHT22;43657;52.698;6.314;2023-05-23T04:01:43;12.30;99.90
57829;DHT22;43657;52.698;6.314;2023-05-23T04:04:12;12.20;99.90
57829;DHT22;43657;52.698;6.314;2023-05-23T04:06:37;12.20;99.90
57829;DHT22;43657;52.698;6.314;2023-05-23T04:09:03;12.20;99.90
57829;DHT22;43657;52.698;6.314;2023-05-23T04:11:30;12.20;99.90
57829;DHT22;43657;52.698;6.314;2023-05-23T04:13:57;12.20;99.90
57829;DHT22;43657;52.698;6.314;2023-05-23T04:16:23;12.10;99.90
57829;DHT22;43657;52.698;6.314;2023-05-23T04:18:50;12.20;99.90
57829;DHT22;43657;52.698;6.314;2023-05-23T04:21:16;12.10;99.90
57829;DHT22;43657;52.698;6.314;2023-05-23T04:23:42;12.10;99.90
57829;DHT22;43657;52.698;6.314;2023-05-23T04:26:07;12.10;99.90
57829;DHT22;43657;52.698;6.314;2023-05-23T04:28:34;12.20;99.90
57829;DHT22;43657;52.698;6.314;2023-05-23T04:31:04;12.10;99.90
57829;DHT22;43657;52.698;6.314;2023-05-23T04:33:36;12.10;99.90
57829;DHT22;43657;52.698;6.314;2023-05-23T04:36:06;12.10;99.90
57829;DHT22;43657;52.698;6.314;2023-05-23T04:38:35;12.10;99.90
57829;DHT22;43657;52.698;6.314;2023-05-23T04:41:04;12.00;99.90
57829;DHT22;43657;52.698;6.314;2023-05-23T04:43:33;12.10;99.90
57829;DHT22;43657;52.698;6.314;2023-05-23T04:45:59;12.00;99.90
57829;DHT22;43657;52.698;6.314;2023-05-23T04:48:26;12.10;99.90
57829;DHT22;43657;52.698;6.314;2023-05-23T04:50:55;12.00;99.90
57829;DHT22;43657;52.698;6.314;2023-05-23T04:53:25;11.90;99.90
57829;DHT22;43657;52.698;6.314;2023-05-23T04:55:51;12.00;99.90
57829;DHT22;43657;52.698;6.314;2023-05-23T04:58:16;11.90;99.90
57829;DHT22;43657;52.698;6.314;2023-05-23T05:00:42;11.90;99.90
57829;DHT22;43657;52.698;6.314;2023-05-23T05:03:13;11.90;99.90
57829;DHT22;43657;52.698;6.314;2023-05-23T05:05:42;11.90;99.90
57829;DHT22;43657;52.698;6.314;2023-05-23T05:08:07;11.80;99.90
57829;DHT22;43657;52.698;6.314;2023-05-23T05:10:33;11.80;99.90
57829;DHT22;43657;52.698;6.314;2023-05-23T05:13:01;11.80;99.90
57829;DHT22;43657;52.698;6.314;2023-05-23T05:15:27;11.80;99.90
57829;DHT22;43657;52.698;6.314;2023-05-23T05:17:57;11.80;99.90
57829;DHT22;43657;52.698;6.314;2023-05-23T05:20:23;11.80;99.90
57829;DHT22;43657;52.698;6.314;2023-05-23T05:22:57;11.80;99.90
57829;DHT22;43657;52.698;6.314;2023-05-23T05:25:23;11.80;99.90
57829;DHT22;43657;52.698;6.314;2023-05-23T05:27:51;11.80;99.90
57829;DHT22;43657;52.698;6.314;2023-05-23T05:30:20;11.80;99.90
57829;DHT22;43657;52.698;6.314;2023-05-23T05:32:46;11.90;99.90
57829;DHT22;43657;52.698;6.314;2023-05-23T05:35:21;11.90;99.90
57829;DHT22;43657;52.698;6.314;2023-05-23T05:37:51;11.80;99.90
57829;DHT22;43657;52.698;6.314;2023-05-23T05:40:20;11.80;99.90
57829;DHT22;43657;52.698;6.314;2023-05-23T05:42:46;11.80;99.90
57829;DHT22;43657;52.698;6.314;2023-05-23T05:45:17;11.80;99.90
57829;DHT22;43657;52.698;6.314;2023-05-23T05:47:44;11.80;99.90
57829;DHT22;43657;52.698;6.314;2023-05-23T05:50:10;11.70;99.90
57829;DHT22;43657;52.698;6.314;2023-05-23T05:52:36;11.70;99.90
57829;DHT22;43657;52.698;6.314;2023-05-23T05:55:08;11.70;99.90
57829;DHT22;43657;52.698;6.314;2023-05-23T05:57:42;11.70;99.90
57829;DHT22;43657;52.698;6.314;2023-05-23T06:00:10;11.60;99.90
57829;DHT22;43657;52.698;6.314;2023-05-23T06:02:40;11.60;99.90
57829;DHT22;43657;52.698;6.314;2023-05-23T06:05:11;11.60;99.90
57829;DHT22;43657;52.698;6.314;2023-05-23T06:07:39;11.60;99.90
57829;DHT22;43657;52.698;6.314;2023-05-23T06:10:08;11.60;99.90
57829;DHT22;43657;52.698;6.314;2023-05-23T06:12:34;11.60;99.90
57829;DHT22;43657;52.698;6.314;2023-05-23T06:15:00;11.60;99.90
57829;DHT22;43657;52.698;6.314;2023-05-23T06:17:27;11.60;99.90
57829;DHT22;43657;52.698;6.314;2023-05-23T06:19:55;11.50;99.90
57829;DHT22;43657;52.698;6.314;2023-05-23T06:22:21;11.50;99.90
57829;DHT22;43657;52.698;6.314;2023-05-23T06:24:47;11.40;99.90
57829;DHT22;43657;52.698;6.314;2023-05-23T06:27:13;11.40;99.90
57829;DHT22;43657;52.698;6.314;2023-05-23T06:29:39;11.40;99.90
57829;DHT22;43657;52.698;6.314;2023-05-23T06:32:10;11.40;99.90
57829;DHT22;43657;52.698;6.314;2023-05-23T06:34:39;11.40;99.90
57829;DHT22;43657;52.698;6.314;2023-05-23T06:37:07;11.50;99.90
57829;DHT22;43657;52.698;6.314;2023-05-23T06:39:33;11.60;99.90
57829;DHT22;43657;52.698;6.314;2023-05-23T06:41:59;11.70;99.90
57829;DHT22;43657;52.698;6.314;2023-05-23T06:44:25;11.80;99.90
57829;DHT22;43657;52.698;6.314;2023-05-23T06:46:54;11.90;99.90
57829;DHT22;43657;52.698;6.314;2023-05-23T06:49:25;12.00;99.90
57829;DHT22;43657;52.698;6.314;2023-05-23T06:51:53;12.00;99.90
57829;DHT22;43657;52.698;6.314;2023-05-23T06:54:19;11.90;99.90
57829;DHT22;43657;52.698;6.314;2023-05-23T06:56:48;12.00;99.90
57829;DHT22;43657;52.698;6.314;2023-05-23T06:59:14;12.00;99.90
57829;DHT22;43657;52.698;6.314;2023-05-23T07:01:40;12.10;99.90
57829;DHT22;43657;52.698;6.314;2023-05-23T07:04:08;12.10;99.90
57829;DHT22;43657;52.698;6.314;2023-05-23T07:06:42;12.20;99.90
57829;DHT22;43657;52.698;6.314;2023-05-23T07:09:24;12.20;99.90
57829;DHT22;43657;52.698;6.314;2023-05-23T07:12:05;12.20;99.90
57829;DHT22;43657;52.698;6.314;2023-05-23T07:14:37;12.20;99.90
57829;DHT22;43657;52.698;6.314;2023-05-23T07:20:31;12.20;99.90
57829;DHT22;43657;52.698;6.314;2023-05-23T07:23:12;12.20;99.90
57829;DHT22;43657;52.698;6.314;2023-05-23T07:26:27;12.30;99.90
57829;DHT22;43657;52.698;6.314;2023-05-23T07:28:57;12.30;99.90
57829;DHT22;43657;52.698;6.314;2023-05-23T07:31:36;12.50;99.90
57829;DHT22;43657;52.698;6.314;2023-05-23T07:34:02;12.70;99.90
57829;DHT22;43657;52.698;6.314;2023-05-23T07:36:31;12.90;99.90
57829;DHT22;43657;52.698;6.314;2023-05-23T07:39:03;13.10;99.90
57829;DHT22;43657;52.698;6.314;2023-05-23T07:41:35;13.10;99.90
57829;DHT22;43657;52.698;6.314;2023-05-23T07:44:01;13.10;99.90
57829;DHT22;43657;52.698;6.314;2023-05-23T07:46:27;13.00;99.90
57829;DHT22;43657;52.698;6.314;2023-05-23T07:48:53;13.00;99.90
57829;DHT22;43657;52.698;6.314;2023-05-23T07:51:22;13.00;99.90
57829;DHT22;43657;52.698;6.314;2023-05-23T07:53:48;13.00;99.90
57829;DHT22;43657;52.698;6.314;2023-05-23T07:56:17;13.00;99.90
57829;DHT22;43657;52.698;6.314;2023-05-23T07:58:44;12.90;99.90
57829;DHT22;43657;52.698;6.314;2023-05-23T08:01:10;12.80;99.90
57829;DHT22;43657;52.698;6.314;2023-05-23T08:03:36;12.70;99.90
57829;DHT22;43657;52.698;6.314;2023-05-23T08:06:02;12.80;99.90
57829;DHT22;43657;52.698;6.314;2023-05-23T08:08:31;12.90;99.90
57829;DHT22;43657;52.698;6.314;2023-05-23T08:11:00;13.10;99.90
57829;DHT22;43657;52.698;6.314;2023-05-23T08:13:26;13.20;99.90
57829;DHT22;43657;52.698;6.314;2023-05-23T08:15:52;13.40;99.90
57829;DHT22;43657;52.698;6.314;2023-05-23T08:18:21;13.50;99.90
57829;DHT22;43657;52.698;6.314;2023-05-23T08:20:47;13.60;99.90
57829;DHT22;43657;52.698;6.314;2023-05-23T08:23:18;13.60;99.90
57829;DHT22;43657;52.698;6.314;2023-05-23T08:25:47;13.60;99.90
57829;DHT22;43657;52.698;6.314;2023-05-23T08:28:13;13.60;99.90
57829;DHT22;43657;52.698;6.314;2023-05-23T08:30:39;13.70;99.90
57829;DHT22;43657;52.698;6.314;2023-05-23T08:33:05;13.90;99.90
57829;DHT22;43657;52.698;6.314;2023-05-23T08:35:34;14.20;99.90
57829;DHT22;43657;52.698;6.314;2023-05-23T08:38:12;14.60;99.90
57829;DHT22;43657;52.698;6.314;2023-05-23T08:40:46;15.00;99.90
57829;DHT22;43657;52.698;6.314;2023-05-23T08:43:14;15.10;99.90
57829;DHT22;43657;52.698;6.314;2023-05-23T08:45:43;15.10;99.90
57829;DHT22;43657;52.698;6.314;2023-05-23T08:48:12;15.10;99.90
57829;DHT22;43657;52.698;6.314;2023-05-23T08:50:43;15.50;99.90
57829;DHT22;43657;52.698;6.314;2023-05-23T08:53:14;16.10;99.90
57829;DHT22;43657;52.698;6.314;2023-05-23T08:55:47;16.50;99.90
57829;DHT22;43657;52.698;6.314;2023-05-23T08:58:16;16.50;99.90
57829;DHT22;43657;52.698;6.314;2023-05-23T09:00:45;16.20;99.90
57829;DHT22;43657;52.698;6.314;2023-05-23T09:03:11;15.90;99.90
57829;DHT22;43657;52.698;6.314;2023-05-23T09:05:37;15.80;99.90
57829;DHT22;43657;52.698;6.314;2023-05-23T09:08:03;15.90;99.90
57829;DHT22;43657;52.698;6.314;2023-05-23T09:10:28;16.00;99.90
57829;DHT22;43657;52.698;6.314;2023-05-23T09:12:54;16.10;99.90
57829;DHT22;43657;52.698;6.314;2023-05-23T09:15:20;16.20;99.90
57829;DHT22;43657;52.698;6.314;2023-05-23T09:17:46;16.80;99.90
57829;DHT22;43657;52.698;6.314;2023-05-23T09:20:14;17.60;89.90
57829;DHT22;43657;52.698;6.314;2023-05-23T09:22:40;18.20;86.60
57829;DHT22;43657;52.698;6.314;2023-05-23T09:25:10;18.70;89.20
57829;DHT22;43657;52.698;6.314;2023-05-23T09:27:35;19.30;85.80
57829;DHT22;43657;52.698;6.314;2023-05-23T09:30:08;19.80;77.80
57829;DHT22;43657;52.698;6.314;2023-05-23T09:32:34;20.10;79.80
57829;DHT22;43657;52.698;6.314;2023-05-23T09:35:05;20.20;79.40
57829;DHT22;43657;52.698;6.314;2023-05-23T09:37:35;19.80;76.00
57829;DHT22;43657;52.698;6.314;2023-05-23T09:40:07;19.40;76.30
57829;DHT22;43657;52.698;6.314;2023-05-23T09:42:34;19.30;79.00
57829;DHT22;43657;52.698;6.314;2023-05-23T09:45:01;18.90;74.40
57829;DHT22;43657;52.698;6.314;2023-05-23T09:47:27;18.30;73.20
57829;DHT22;43657;52.698;6.314;2023-05-23T09:49:53;18.00;73.30
57829;DHT22;43657;52.698;6.314;2023-05-23T09:52:18;18.40;74.90
57829;DHT22;43657;52.698;6.314;2023-05-23T09:54:47;19.10;74.50
57829;DHT22;43657;52.698;6.314;2023-05-23T09:57:14;19.80;74.10
57829;DHT22;43657;52.698;6.314;2023-05-23T09:59:51;20.10;73.90
57829;DHT22;43657;52.698;6.314;2023-05-23T10:02:38;20.20;70.60
57829;DHT22;43657;52.698;6.314;2023-05-23T10:05:28;19.70;68.30
57829;DHT22;43657;52.698;6.314;2023-05-23T10:07:57;19.10;67.40
57829;DHT22;43657;52.698;6.314;2023-05-23T10:10:26;19.10;68.50
57829;DHT22;43657;52.698;6.314;2023-05-23T10:12:55;19.40;68.70
57829;DHT22;43657;52.698;6.314;2023-05-23T10:15:26;19.30;65.40
57829;DHT22;43657;52.698;6.314;2023-05-23T10:18:08;18.50;70.60
57829;DHT22;43657;52.698;6.314;2023-05-23T10:20:35;18.10;70.00
57829;DHT22;43657;52.698;6.314;2023-05-23T10:23:04;18.20;76.30
57829;DHT22;43657;52.698;6.314;2023-05-23T10:25:30;18.70;81.20
57829;DHT22;43657;52.698;6.314;2023-05-23T10:27:57;19.20;73.60
57829;DHT22;43657;52.698;6.314;2023-05-23T10:30:26;19.50;69.80
57829;DHT22;43657;52.698;6.314;2023-05-23T10:32:56;19.70;70.00
57829;DHT22;43657;52.698;6.314;2023-05-23T10:41:15;21.10;60.90
57829;DHT22;43657;52.698;6.314;2023-05-23T10:43:47;20.80;63.70
57829;DHT22;43657;52.698;6.314;2023-05-23T10:46:19;20.60;65.10
57829;DHT22;43657;52.698;6.314;2023-05-23T10:48:45;20.30;66.30
57829;DHT22;43657;52.698;6.314;2023-05-23T10:51:15;20.00;63.30
57829;DHT22;43657;52.698;6.314;2023-05-23T10:53:43;19.40;64.60
57829;DHT22;43657;52.698;6.314;2023-05-23T10:56:17;19.10;67.00
57829;DHT22;43657;52.698;6.314;2023-05-23T10:58:46;19.40;66.10
57829;DHT22;43657;52.698;6.314;2023-05-23T11:01:16;19.90;67.10
57829;DHT22;43657;52.698;6.314;2023-05-23T11:06:41;19.40;65.90
57829;DHT22;43657;52.698;6.314;2023-05-23T11:09:11;19.10;68.40
57829;DHT22;43657;52.698;6.314;2023-05-23T11:11:59;19.00;70.20
57829;DHT22;43657;52.698;6.314;2023-05-23T11:16:57;20.00;67.70
57829;DHT22;43657;52.698;6.314;2023-05-23T11:19:25;19.60;65.20
57829;DHT22;43657;52.698;6.314;2023-05-23T11:22:02;19.20;66.40
57829;DHT22;43657;52.698;6.314;2023-05-23T11:24:52;19.00;66.40
57829;DHT22;43657;52.698;6.314;2023-05-23T11:27:38;18.80;67.30
57829;DHT22;43657;52.698;6.314;2023-05-23T11:32:33;18.90;67.20
57829;DHT22;43657;52.698;6.314;2023-05-23T11:35:02;19.20;65.00
57829;DHT22;43657;52.698;6.314;2023-05-23T11:37:29;19.20;65.10
57829;DHT22;43657;52.698;6.314;2023-05-23T11:39:55;19.10;64.80
57829;DHT22;43657;52.698;6.314;2023-05-23T11:42:21;19.50;64.20
57829;DHT22;43657;52.698;6.314;2023-05-23T11:44:48;19.70;63.60
57829;DHT22;43657;52.698;6.314;2023-05-23T11:47:15;20.00;65.60
57829;DHT22;43657;52.698;6.314;2023-05-23T11:49:44;20.20;64.70
57829;DHT22;43657;52.698;6.314;2023-05-23T11:52:11;20.30;64.30
57829;DHT22;43657;52.698;6.314;2023-05-23T11:54:39;20.10;62.10
57829;DHT22;43657;52.698;6.314;2023-05-23T11:57:05;19.60;62.70
57829;DHT22;43657;52.698;6.314;2023-05-23T11:59:31;19.90;66.10
57829;DHT22;43657;52.698;6.314;2023-05-23T12:01:58;19.90;63.50
57829;DHT22;43657;52.698;6.314;2023-05-23T12:04:24;19.40;62.80
57829;DHT22;43657;52.698;6.314;2023-05-23T12:06:51;18.90;66.00
57829;DHT22;43657;52.698;6.314;2023-05-23T12:09:16;19.30;68.00
57829;DHT22;43657;52.698;6.314;2023-05-23T12:11:43;20.00;65.80
57829;DHT22;43657;52.698;6.314;2023-05-23T12:14:14;19.90;64.20
57829;DHT22;43657;52.698;6.314;2023-05-23T12:16:44;19.80;62.80
57829;DHT22;43657;52.698;6.314;2023-05-23T12:19:15;19.50;63.20
57829;DHT22;43657;52.698;6.314;2023-05-23T12:21:42;19.10;64.40
57829;DHT22;43657;52.698;6.314;2023-05-23T12:24:18;19.00;66.70
57829;DHT22;43657;52.698;6.314;2023-05-23T12:26:51;19.60;64.50
57829;DHT22;43657;52.698;6.314;2023-05-23T12:29:18;19.80;65.20
57829;DHT22;43657;52.698;6.314;2023-05-23T12:31:47;19.50;63.10
57829;DHT22;43657;52.698;6.314;2023-05-23T12:34:13;18.90;65.40
57829;DHT22;43657;52.698;6.314;2023-05-23T12:36:38;18.40;66.00
57829;DHT22;43657;52.698;6.314;2023-05-23T12:39:07;17.90;65.80
57829;DHT22;43657;52.698;6.314;2023-05-23T12:41:33;17.40;67.70
57829;DHT22;43657;52.698;6.314;2023-05-23T12:44:00;17.10;68.10
57829;DHT22;43657;52.698;6.314;2023-05-23T12:46:26;16.70;68.80
57829;DHT22;43657;52.698;6.314;2023-05-23T12:48:53;16.70;70.00
57829;DHT22;43657;52.698;6.314;2023-05-23T12:51:19;17.30;71.20
57829;DHT22;43657;52.698;6.314;2023-05-23T12:53:46;17.70;69.80
57829;DHT22;43657;52.698;6.314;2023-05-23T12:56:11;17.80;69.70
57829;DHT22;43657;52.698;6.314;2023-05-23T12:58:37;17.90;67.70
57829;DHT22;43657;52.698;6.314;2023-05-23T13:01:03;18.50;66.70
57829;DHT22;43657;52.698;6.314;2023-05-23T13:03:29;19.30;70.60
57829;DHT22;43657;52.698;6.314;2023-05-23T13:05:58;19.40;66.00
57829;DHT22;43657;52.698;6.314;2023-05-23T13:08:27;19.10;65.20
57829;DHT22;43657;52.698;6.314;2023-05-23T13:10:53;19.40;65.60
57829;DHT22;43657;52.698;6.314;2023-05-23T13:13:19;19.60;62.50
57829;DHT22;43657;52.698;6.314;2023-05-23T13:15:45;19.50;63.30
57829;DHT22;43657;52.698;6.314;2023-05-23T13:18:11;19.90;61.00
57829;DHT22;43657;52.698;6.314;2023-05-23T13:20:37;20.60;61.00
57829;DHT22;43657;52.698;6.314;2023-05-23T13:23:02;21.30;64.20
57829;DHT22;43657;52.698;6.314;2023-05-23T13:25:28;21.80;60.80
57829;DHT22;43657;52.698;6.314;2023-05-23T13:27:54;21.80;60.70
57829;DHT22;43657;52.698;6.314;2023-05-23T13:30:22;21.50;60.40
57829;DHT22;43657;52.698;6.314;2023-05-23T13:32:48;20.80;58.80
57829;DHT22;43657;52.698;6.314;2023-05-23T13:35:14;20.40;59.20
57829;DHT22;43657;52.698;6.314;2023-05-23T13:37:40;19.80;61.00
57829;DHT22;43657;52.698;6.314;2023-05-23T13:40:06;19.10;61.80
57829;DHT22;43657;52.698;6.314;2023-05-23T13:42:33;18.70;64.50
57829;DHT22;43657;52.698;6.314;2023-05-23T13:44:58;18.70;66.40
57829;DHT22;43657;52.698;6.314;2023-05-23T13:47:24;19.30;65.20
57829;DHT22;43657;52.698;6.314;2023-05-23T13:49:50;19.90;65.20
57829;DHT22;43657;52.698;6.314;2023-05-23T13:52:15;20.60;61.70
57829;DHT22;43657;52.698;6.314;2023-05-23T13:54:41;20.80;62.20
57829;DHT22;43657;52.698;6.314;2023-05-23T13:57:07;20.60;59.90
57829;DHT22;43657;52.698;6.314;2023-05-23T13:59:32;20.20;60.70
57829;DHT22;43657;52.698;6.314;2023-05-23T14:01:58;20.30;61.00
57829;DHT22;43657;52.698;6.314;2023-05-23T14:04:24;20.80;60.50
57829;DHT22;43657;52.698;6.314;2023-05-23T14:06:50;21.30;57.40
57829;DHT22;43657;52.698;6.314;2023-05-23T14:09:16;21.10;57.40
57829;DHT22;43657;52.698;6.314;2023-05-23T14:11:42;20.70;55.50
57829;DHT22;43657;52.698;6.314;2023-05-23T14:14:08;20.00;57.90
57829;DHT22;43657;52.698;6.314;2023-05-23T14:16:33;19.70;60.30
57829;DHT22;43657;52.698;6.314;2023-05-23T14:18:59;19.60;59.00
57829;DHT22;43657;52.698;6.314;2023-05-23T14:21:24;19.10;61.30
57829;DHT22;43657;52.698;6.314;2023-05-23T14:23:50;18.30;61.00
57829;DHT22;43657;52.698;6.314;2023-05-23T14:26:15;18.30;61.70
57829;DHT22;43657;52.698;6.314;2023-05-23T14:28:41;18.50;63.60
57829;DHT22;43657;52.698;6.314;2023-05-23T14:31:07;18.50;63.60
57829;DHT22;43657;52.698;6.314;2023-05-23T14:33:32;18.40;62.20
57829;DHT22;43657;52.698;6.314;2023-05-23T14:35:59;18.20;61.90
57829;DHT22;43657;52.698;6.314;2023-05-23T14:38:25;18.30;62.20
57829;DHT22;43657;52.698;6.314;2023-05-23T14:40:51;18.40;61.40
57829;DHT22;43657;52.698;6.314;2023-05-23T14:43:18;18.80;65.50
57829;DHT22;43657;52.698;6.314;2023-05-23T14:45:43;19.10;62.20
57829;DHT22;43657;52.698;6.314;2023-05-23T14:48:09;19.20;61.80
57829;DHT22;43657;52.698;6.314;2023-05-23T14:50:35;19.50;62.20
57829;DHT22;43657;52.698;6.314;2023-05-23T14:53:01;19.60;59.60
57829;DHT22;43657;52.698;6.314;2023-05-23T14:55:27;19.30;60.00
57829;DHT22;43657;52.698;6.314;2023-05-23T14:57:53;19.00;61.70
57829;DHT22;43657;52.698;6.314;2023-05-23T15:00:19;18.70;61.00
57829;DHT22;43657;52.698;6.314;2023-05-23T15:02:46;18.60;60.70
57829;DHT22;43657;52.698;6.314;2023-05-23T15:05:12;18.50;61.20
57829;DHT22;43657;52.698;6.314;2023-05-23T15:07:43;18.20;62.70
57829;DHT22;43657;52.698;6.314;2023-05-23T15:10:11;17.90;62.90
57829;DHT22;43657;52.698;6.314;2023-05-23T15:12:37;17.60;63.20
57829;DHT22;43657;52.698;6.314;2023-05-23T15:15:03;17.00;61.50
57829;DHT22;43657;52.698;6.314;2023-05-23T15:17:32;16.50;62.80
57829;DHT22;43657;52.698;6.314;2023-05-23T15:19:58;16.10;63.40
57829;DHT22;43657;52.698;6.314;2023-05-23T15:22:24;15.90;66.00
57829;DHT22;43657;52.698;6.314;2023-05-23T15:24:50;15.80;65.20
57829;DHT22;43657;52.698;6.314;2023-05-23T15:27:19;15.70;67.30
57829;DHT22;43657;52.698;6.314;2023-05-23T15:29:46;15.80;64.60
57829;DHT22;43657;52.698;6.314;2023-05-23T15:32:12;15.70;66.20
57829;DHT22;43657;52.698;6.314;2023-05-23T15:34:41;15.80;67.20
57829;DHT22;43657;52.698;6.314;2023-05-23T15:37:09;15.80;66.70
57829;DHT22;43657;52.698;6.314;2023-05-23T15:39:35;15.70;67.30
57829;DHT22;43657;52.698;6.314;2023-05-23T15:42:01;15.60;66.30
57829;DHT22;43657;52.698;6.314;2023-05-23T15:44:27;15.50;68.40
57829;DHT22;43657;52.698;6.314;2023-05-23T15:46:53;15.40;70.00
57829;DHT22;43657;52.698;6.314;2023-05-23T15:49:19;15.60;68.00
57829;DHT22;43657;52.698;6.314;2023-05-23T15:51:45;15.70;68.60
57829;DHT22;43657;52.698;6.314;2023-05-23T15:54:13;15.60;66.10
57829;DHT22;43657;52.698;6.314;2023-05-23T15:56:39;15.60;63.50
57829;DHT22;43657;52.698;6.314;2023-05-23T15:59:05;15.40;64.70